createdAt,value
2022-08-05T00:05:05.849Z,78
2022-08-05T00:10:39.363Z,78
2022-08-05T00:16:14.472Z,78
2022-08-05T00:22:59.657Z,78
2022-08-05T00:28:31.502Z,78
2022-08-05T00:34:53.691Z,78
2022-08-05T00:39:57.059Z,79
2022-08-05T00:45:16.560Z,79
2022-08-05T00:50:51.541Z,80
2022-08-05T00:56:26.684Z,80
2022-08-05T01:02:01.564Z,80
2022-08-05T01:07:36.601Z,81
2022-08-05T01:13:13.270Z,81
2022-08-05T01:18:47.970Z,81
2022-08-05T01:24:22.100Z,82
2022-08-05T01:29:56.085Z,81
2022-08-05T01:35:52.238Z,82
2022-08-05T01:41:06.103Z,82
2022-08-05T01:46:43.112Z,82
2022-08-05T01:52:17.894Z,81
2022-08-05T01:58:12.153Z,81
2022-08-05T02:03:31.537Z,81
2022-08-05T02:09:01.203Z,81
2022-08-05T02:14:36.119Z,81
2022-08-05T02:20:11.090Z,81
2022-08-05T02:25:49.784Z,81
2022-08-05T02:31:21.415Z,81
2022-08-05T02:36:56.103Z,81
2022-08-05T02:42:35.945Z,81
2022-08-05T02:48:11.957Z,81
2022-08-05T02:53:41.124Z,81
2022-08-05T02:59:16.152Z,81
2022-08-05T03:04:53.099Z,81
2022-08-05T03:10:26.308Z,81
2022-08-05T03:16:01.311Z,81
2022-08-05T03:22:44.145Z,82
2022-08-05T03:28:18.498Z,82
2022-08-05T03:33:53.349Z,82
2022-08-05T03:39:28.477Z,82
2022-08-05T03:45:22.338Z,82
2022-08-05T03:50:38.408Z,82
2022-08-05T03:56:18.089Z,82
2022-08-05T04:01:48.498Z,82
2022-08-05T04:07:23.630Z,82
2022-08-05T04:12:58.917Z,83
2022-08-05T04:18:34.302Z,83
2022-08-05T04:24:19.152Z,83
2022-08-05T04:29:43.431Z,83
2022-08-05T04:35:19.676Z,83
2022-08-05T04:40:53.391Z,83
2022-08-05T04:46:28.728Z,83
2022-08-05T04:52:03.434Z,83
2022-08-05T04:57:38.522Z,84
2022-08-05T05:03:13.493Z,84
2022-08-05T05:08:49.990Z,84
2022-08-05T05:14:27.828Z,84
2022-08-05T05:19:58.467Z,84
2022-08-05T05:26:42.535Z,84
2022-08-05T05:32:15.632Z,83
2022-08-05T05:38:00.179Z,83
2022-08-05T05:43:57.360Z,83
2022-08-05T05:49:00.090Z,83
2022-08-05T05:54:50.207Z,83
2022-08-05T06:00:10.266Z,83
2022-08-05T06:05:45.060Z,83
2022-08-05T06:11:20.185Z,83
2022-08-05T06:16:55.446Z,83
2022-08-05T06:22:30.087Z,83
2022-08-05T06:28:12.442Z,84
2022-08-05T06:34:06.817Z,84
2022-08-05T06:39:15.383Z,84
2022-08-05T06:44:50.482Z,84
2022-08-05T06:50:25.921Z,85
2022-08-05T06:55:59.985Z,84
2022-08-05T07:01:35.073Z,83
2022-08-05T07:07:10.012Z,82
2022-08-05T07:12:49.147Z,82
2022-08-05T07:18:23.093Z,81
2022-08-05T07:23:55.024Z,79
2022-08-05T07:30:39.218Z,80
2022-08-05T07:36:21.317Z,79
2022-08-05T07:42:13.425Z,79
2022-08-05T07:47:25.876Z,77
2022-08-05T07:52:57.183Z,76
2022-08-05T07:58:57.896Z,77
2022-08-05T08:04:07.175Z,77
2022-08-05T08:09:42.216Z,77
2022-08-05T08:15:17.431Z,73
2022-08-05T08:21:03.154Z,73
2022-08-05T08:26:29.805Z,75
2022-08-05T08:33:09.274Z,72
2022-08-05T08:38:53.130Z,72
2022-08-05T08:45:22.113Z,72
2022-08-05T08:50:22.915Z,72
2022-08-05T08:56:03.202Z,72
2022-08-05T09:01:04.393Z,72
2022-08-05T09:06:39.432Z,72
2022-08-05T09:12:20.609Z,72
2022-08-05T09:17:49.860Z,73
2022-08-05T09:23:27.229Z,71
2022-08-05T09:28:59.396Z,70
2022-08-05T09:34:34.393Z,70
2022-08-05T09:40:09.491Z,70
2022-08-05T09:46:07.853Z,69
2022-08-05T09:51:19.946Z,70
2022-08-05T09:56:53.891Z,69
2022-08-05T10:02:29.087Z,68
2022-08-05T10:08:35.055Z,70
2022-08-05T10:13:47.565Z,70
2022-08-05T10:19:13.923Z,68
2022-08-05T10:24:48.957Z,68
2022-08-05T10:31:19.958Z,67
2022-08-05T10:36:00.076Z,67
2022-08-05T10:41:45.272Z,67
2022-08-05T10:47:10.205Z,67
2022-08-05T10:52:47.038Z,66
2022-08-05T10:58:19.152Z,66
2022-08-05T11:03:54.128Z,66
2022-08-05T11:09:45.495Z,66
2022-08-05T11:15:19.829Z,68
2022-08-05T11:20:41.635Z,70
2022-08-05T11:26:13.952Z,71
2022-08-05T11:31:58.242Z,71
2022-08-05T11:38:28.946Z,71
2022-08-05T11:44:08.048Z,71
2022-08-05T11:49:43.009Z,71
2022-08-05T11:55:16.671Z,71
2022-08-05T12:00:52.868Z,70
2022-08-05T12:06:26.109Z,71
2022-08-05T12:12:01.171Z,70
2022-08-05T12:18:03.762Z,70
2022-08-05T12:23:11.144Z,69
2022-08-05T12:28:46.464Z,69
2022-08-05T12:34:23.581Z,68
2022-08-05T12:39:56.244Z,69
2022-08-05T12:45:42.577Z,71
2022-08-05T12:51:06.242Z,73
2022-08-05T12:56:41.170Z,73
2022-08-05T13:02:16.306Z,71
2022-08-05T13:08:00.610Z,71
2022-08-05T13:14:06.378Z,72
2022-08-05T13:19:01.205Z,71
2022-08-05T13:24:51.082Z,70
2022-08-05T13:30:32.898Z,70
2022-08-05T13:35:51.709Z,69
2022-08-05T13:41:20.893Z,69
2022-08-05T13:47:04.782Z,69
2022-08-05T13:52:30.805Z,69
2022-08-05T13:58:05.731Z,69
2022-08-05T14:03:41.998Z,68
2022-08-05T14:09:16.185Z,67
2022-08-05T14:14:51.382Z,68
2022-08-05T14:20:27.250Z,67
2022-08-05T14:26:00.943Z,67
2022-08-05T14:32:02.188Z,66
2022-08-05T14:37:13.351Z,67
2022-08-05T14:42:45.791Z,67
2022-08-05T14:48:33.543Z,66
2022-08-05T14:55:02.986Z,66
2022-08-05T15:00:37.961Z,67
2022-08-05T15:06:15.703Z,67
2022-08-05T15:11:52.793Z,67
2022-08-05T15:17:47.053Z,67
2022-08-05T15:22:58.073Z,66
2022-08-05T15:28:33.025Z,67
2022-08-05T15:34:32.550Z,67
2022-08-05T15:40:59.733Z,67
2022-08-05T15:45:18.759Z,67
2022-08-05T15:50:53.054Z,69
2022-08-05T15:56:28.053Z,70
2022-08-05T16:02:03.158Z,71
2022-08-05T16:07:38.130Z,71
2022-08-05T16:13:13.122Z,71
2022-08-05T16:18:51.896Z,71
2022-08-05T16:24:40.321Z,69
2022-08-05T16:29:58.109Z,70
2022-08-05T16:35:34.657Z,70
2022-08-05T16:42:13.842Z,70
2022-08-05T16:46:55.793Z,70
2022-08-05T16:52:18.170Z,70
2022-08-05T16:58:00.179Z,69
2022-08-05T17:03:31.503Z,70
2022-08-05T17:10:09.714Z,70
2022-08-05T17:15:47.876Z,70
2022-08-05T17:21:23.488Z,69
2022-08-05T17:26:55.339Z,69
2022-08-05T17:32:30.153Z,70
2022-08-05T17:38:05.176Z,69
2022-08-05T17:43:53.181Z,69
2022-08-05T17:49:15.043Z,69
2022-08-05T17:54:50.163Z,69
2022-08-05T18:00:29.331Z,70
2022-08-05T18:06:01.808Z,70
2022-08-05T18:11:34.848Z,70
2022-08-05T18:18:01.504Z,71
2022-08-05T18:22:54.753Z,71
2022-08-05T18:28:22.101Z,71
2022-08-05T18:33:54.905Z,71
2022-08-05T18:40:29.546Z,70
2022-08-05T18:45:04.865Z,71
2022-08-05T18:50:42.282Z,71
2022-08-05T18:56:14.874Z,70
2022-08-05T19:01:57.163Z,70
2022-08-05T19:07:24.915Z,70
2022-08-05T19:12:59.905Z,71
2022-08-05T19:18:34.904Z,70
2022-08-05T19:24:12.973Z,70
2022-08-05T19:30:51.968Z,70
2022-08-05T19:36:27.177Z,70
2022-08-05T19:42:07.413Z,71
2022-08-05T19:47:37.902Z,71
2022-08-05T19:53:12.084Z,71
2022-08-05T19:58:54.208Z,71
2022-08-05T20:04:21.588Z,71
2022-08-05T20:09:56.840Z,71
2022-08-05T20:15:51.745Z,71
2022-08-05T20:21:07.295Z,71
2022-08-05T20:26:42.779Z,70
2022-08-05T20:32:16.813Z,70
2022-08-05T20:38:06.191Z,71
2022-08-05T20:43:57.485Z,71
2022-08-05T20:49:02.536Z,71
2022-08-05T20:54:43.631Z,71
2022-08-05T21:00:40.283Z,71
2022-08-05T21:05:54.337Z,71
2022-08-05T21:12:10.127Z,71
2022-08-05T21:16:56.966Z,71
2022-08-05T21:22:31.750Z,71
2022-08-05T21:28:06.681Z,71
2022-08-05T21:34:55.806Z,72
2022-08-05T21:40:23.770Z,72
2022-08-05T21:46:00.415Z,72
2022-08-05T21:52:15.772Z,73
2022-08-05T21:57:30.693Z,73
2022-08-05T22:02:43.824Z,73
2022-08-05T22:08:23.932Z,73
2022-08-05T22:14:32.445Z,73
2022-08-05T22:20:38.899Z,74
2022-08-05T22:26:11.820Z,75
2022-08-05T22:31:46.029Z,75
2022-08-05T22:37:20.912Z,75
2022-08-05T22:42:58.166Z,75
2022-08-05T22:48:30.973Z,76
2022-08-05T22:54:05.992Z,76
2022-08-05T22:59:45.372Z,76
2022-08-05T23:05:15.993Z,77
2022-08-05T23:10:54.847Z,77
2022-08-05T23:16:33.207Z,77
2022-08-05T23:22:00.522Z,77
2022-08-05T23:27:42.361Z,78
2022-08-05T23:33:22.435Z,78
2022-08-05T23:38:46.053Z,78
2022-08-05T23:44:22.614Z,79
2022-08-05T23:49:56.413Z,79
2022-08-05T23:55:31.541Z,79
